sensor_id;sensor_type;location;lat;lon;timestamp;temperature;humidity
939;DHT22;456;53.584;9.968;2023-06-14T00:00:52;16.60;42.60
939;DHT22;456;53.584;9.968;2023-06-14T00:03:19;16.60;42.60
939;DHT22;456;53.584;9.968;2023-06-14T00:05:45;16.60;42.60
939;DHT22;456;53.584;9.968;2023-06-14T00:08:12;16.60;42.60
939;DHT22;456;53.584;9.968;2023-06-14T00:10:37;16.60;42.50
939;DHT22;456;53.584;9.968;2023-06-14T00:13:06;16.60;42.60
939;DHT22;456;53.584;9.968;2023-06-14T00:15:32;16.60;42.60
939;DHT22;456;53.584;9.968;2023-06-14T00:17:58;16.60;42.60
939;DHT22;456;53.584;9.968;2023-06-14T00:20:27;16.60;42.70
939;DHT22;456;53.584;9.968;2023-06-14T00:22:53;16.60;42.60
939;DHT22;456;53.584;9.968;2023-06-14T00:25:22;16.60;42.60
939;DHT22;456;53.584;9.968;2023-06-14T00:27:48;16.60;42.70
939;DHT22;456;53.584;9.968;2023-06-14T00:30:14;16.60;42.60
939;DHT22;456;53.584;9.968;2023-06-14T00:32:39;16.60;42.60
939;DHT22;456;53.584;9.968;2023-06-14T00:35:05;16.60;42.60
939;DHT22;456;53.584;9.968;2023-06-14T00:37:33;16.60;42.60
939;DHT22;456;53.584;9.968;2023-06-14T00:39:58;16.60;42.60
939;DHT22;456;53.584;9.968;2023-06-14T00:42:27;16.60;42.60
939;DHT22;456;53.584;9.968;2023-06-14T00:44:53;16.60;42.60
939;DHT22;456;53.584;9.968;2023-06-14T00:47:19;16.60;42.50
939;DHT22;456;53.584;9.968;2023-06-14T00:49:49;16.60;42.60
939;DHT22;456;53.584;9.968;2023-06-14T00:52:16;16.60;42.60
939;DHT22;456;53.584;9.968;2023-06-14T00:54:43;16.60;42.60
939;DHT22;456;53.584;9.968;2023-06-14T00:57:10;16.60;42.60
939;DHT22;456;53.584;9.968;2023-06-14T00:59:47;16.60;42.60
939;DHT22;456;53.584;9.968;2023-06-14T01:02:13;16.60;42.60
939;DHT22;456;53.584;9.968;2023-06-14T01:04:45;16.60;42.60
939;DHT22;456;53.584;9.968;2023-06-14T01:10:21;16.60;42.70
939;DHT22;456;53.584;9.968;2023-06-14T01:15:30;16.60;42.60
939;DHT22;456;53.584;9.968;2023-06-14T01:17:56;16.60;42.60
939;DHT22;456;53.584;9.968;2023-06-14T01:20:32;16.60;42.70
939;DHT22;456;53.584;9.968;2023-06-14T01:22:58;16.60;42.60
939;DHT22;456;53.584;9.968;2023-06-14T01:25:24;16.60;42.70
939;DHT22;456;53.584;9.968;2023-06-14T01:27:53;16.60;42.70
939;DHT22;456;53.584;9.968;2023-06-14T01:30:20;16.60;42.60
939;DHT22;456;53.584;9.968;2023-06-14T01:32:47;16.60;42.60
939;DHT22;456;53.584;9.968;2023-06-14T01:35:14;16.60;42.60
939;DHT22;456;53.584;9.968;2023-06-14T01:37:40;16.60;42.70
939;DHT22;456;53.584;9.968;2023-06-14T01:40:09;16.60;42.70
939;DHT22;456;53.584;9.968;2023-06-14T01:42:37;16.60;42.70
939;DHT22;456;53.584;9.968;2023-06-14T01:45:05;16.60;42.60
939;DHT22;456;53.584;9.968;2023-06-14T01:47:31;16.60;42.70
939;DHT22;456;53.584;9.968;2023-06-14T01:49:58;16.60;42.70
939;DHT22;456;53.584;9.968;2023-06-14T01:52:24;16.60;42.70
939;DHT22;456;53.584;9.968;2023-06-14T01:54:50;16.60;42.60
939;DHT22;456;53.584;9.968;2023-06-14T01:57:16;16.60;42.60
939;DHT22;456;53.584;9.968;2023-06-14T01:59:42;16.60;42.70
939;DHT22;456;53.584;9.968;2023-06-14T02:02:07;16.60;42.70
939;DHT22;456;53.584;9.968;2023-06-14T02:04:33;16.60;42.60
939;DHT22;456;53.584;9.968;2023-06-14T02:06:59;16.60;42.70
939;DHT22;456;53.584;9.968;2023-06-14T02:09:24;16.60;42.60
939;DHT22;456;53.584;9.968;2023-06-14T02:11:50;16.60;42.70
939;DHT22;456;53.584;9.968;2023-06-14T02:14:16;16.60;42.60
939;DHT22;456;53.584;9.968;2023-06-14T02:16:42;16.60;42.60
939;DHT22;456;53.584;9.968;2023-06-14T02:19:15;16.60;42.60
939;DHT22;456;53.584;9.968;2023-06-14T02:21:42;16.60;42.60
939;DHT22;456;53.584;9.968;2023-06-14T02:24:07;16.60;42.60
939;DHT22;456;53.584;9.968;2023-06-14T02:26:33;16.60;42.60
939;DHT22;456;53.584;9.968;2023-06-14T02:28:59;16.60;42.60
939;DHT22;456;53.584;9.968;2023-06-14T02:31:25;16.60;42.50
939;DHT22;456;53.584;9.968;2023-06-14T02:33:50;16.60;42.60
939;DHT22;456;53.584;9.968;2023-06-14T02:36:16;16.60;42.60
939;DHT22;456;53.584;9.968;2023-06-14T02:38:42;16.60;42.60
939;DHT22;456;53.584;9.968;2023-06-14T02:41:07;16.60;42.60
939;DHT22;456;53.584;9.968;2023-06-14T02:43:33;16.60;42.60
939;DHT22;456;53.584;9.968;2023-06-14T02:45:58;16.60;42.60
939;DHT22;456;53.584;9.968;2023-06-14T02:48:24;16.60;42.60
939;DHT22;456;53.584;9.968;2023-06-14T02:50:50;16.60;42.60
939;DHT22;456;53.584;9.968;2023-06-14T02:53:16;16.60;42.60
939;DHT22;456;53.584;9.968;2023-06-14T02:55:42;16.60;42.60
939;DHT22;456;53.584;9.968;2023-06-14T02:58:08;16.60;42.60
939;DHT22;456;53.584;9.968;2023-06-14T03:00:34;16.60;42.60
939;DHT22;456;53.584;9.968;2023-06-14T03:03:00;16.60;42.60
939;DHT22;456;53.584;9.968;2023-06-14T03:05:27;16.60;42.60
939;DHT22;456;53.584;9.968;2023-06-14T03:07:53;16.60;42.60
939;DHT22;456;53.584;9.968;2023-06-14T03:10:19;16.60;42.60
939;DHT22;456;53.584;9.968;2023-06-14T03:12:45;16.60;42.60
939;DHT22;456;53.584;9.968;2023-06-14T03:15:10;16.60;42.60
939;DHT22;456;53.584;9.968;2023-06-14T03:17:38;16.60;42.60
939;DHT22;456;53.584;9.968;2023-06-14T03:20:04;16.60;42.70
939;DHT22;456;53.584;9.968;2023-06-14T03:22:31;16.60;42.70
939;DHT22;456;53.584;9.968;2023-06-14T03:24:58;16.60;42.70
939;DHT22;456;53.584;9.968;2023-06-14T03:27:24;16.50;42.60
939;DHT22;456;53.584;9.968;2023-06-14T03:29:51;16.60;42.70
939;DHT22;456;53.584;9.968;2023-06-14T03:32:16;16.60;42.60
939;DHT22;456;53.584;9.968;2023-06-14T03:34:42;16.60;42.70
939;DHT22;456;53.584;9.968;2023-06-14T03:37:10;16.60;42.60
939;DHT22;456;53.584;9.968;2023-06-14T03:39:35;16.60;42.60
939;DHT22;456;53.584;9.968;2023-06-14T03:42:02;16.60;42.60
939;DHT22;456;53.584;9.968;2023-06-14T03:44:27;16.60;42.80
939;DHT22;456;53.584;9.968;2023-06-14T03:46:53;16.60;42.70
939;DHT22;456;53.584;9.968;2023-06-14T03:49:19;16.60;42.60
939;DHT22;456;53.584;9.968;2023-06-14T03:51:44;16.60;42.70
939;DHT22;456;53.584;9.968;2023-06-14T03:54:11;16.60;42.60
939;DHT22;456;53.584;9.968;2023-06-14T03:56:36;16.60;42.70
939;DHT22;456;53.584;9.968;2023-06-14T03:59:02;16.60;42.70
939;DHT22;456;53.584;9.968;2023-06-14T04:01:28;16.60;42.80
939;DHT22;456;53.584;9.968;2023-06-14T04:03:58;16.60;42.70
939;DHT22;456;53.584;9.968;2023-06-14T04:06:24;16.60;42.70
939;DHT22;456;53.584;9.968;2023-06-14T04:08:51;16.60;42.70
939;DHT22;456;53.584;9.968;2023-06-14T04:11:17;16.60;42.70
939;DHT22;456;53.584;9.968;2023-06-14T04:13:42;16.60;42.70
939;DHT22;456;53.584;9.968;2023-06-14T04:16:08;16.60;42.80
939;DHT22;456;53.584;9.968;2023-06-14T04:18:34;16.60;42.70
939;DHT22;456;53.584;9.968;2023-06-14T04:20:59;16.60;42.70
939;DHT22;456;53.584;9.968;2023-06-14T04:23:25;16.60;42.70
939;DHT22;456;53.584;9.968;2023-06-14T04:25:53;16.60;42.80
939;DHT22;456;53.584;9.968;2023-06-14T04:28:19;16.60;42.70
939;DHT22;456;53.584;9.968;2023-06-14T04:30:45;16.60;42.80
939;DHT22;456;53.584;9.968;2023-06-14T04:33:12;16.60;42.80
939;DHT22;456;53.584;9.968;2023-06-14T04:35:38;16.60;42.80
939;DHT22;456;53.584;9.968;2023-06-14T04:38:06;16.60;42.80
939;DHT22;456;53.584;9.968;2023-06-14T04:40:35;16.50;42.80
939;DHT22;456;53.584;9.968;2023-06-14T04:43:01;16.60;42.80
939;DHT22;456;53.584;9.968;2023-06-14T04:45:32;16.60;42.80
939;DHT22;456;53.584;9.968;2023-06-14T04:47:59;16.60;42.80
939;DHT22;456;53.584;9.968;2023-06-14T04:50:25;16.60;42.80
939;DHT22;456;53.584;9.968;2023-06-14T04:52:51;16.60;42.80
939;DHT22;456;53.584;9.968;2023-06-14T04:55:17;16.60;42.80
939;DHT22;456;53.584;9.968;2023-06-14T04:57:44;16.60;42.80
939;DHT22;456;53.584;9.968;2023-06-14T05:00:10;16.60;42.80
939;DHT22;456;53.584;9.968;2023-06-14T05:02:37;16.60;42.90
939;DHT22;456;53.584;9.968;2023-06-14T05:05:03;16.60;42.80
939;DHT22;456;53.584;9.968;2023-06-14T05:07:32;16.60;42.80
939;DHT22;456;53.584;9.968;2023-06-14T05:09:59;16.60;42.80
939;DHT22;456;53.584;9.968;2023-06-14T05:12:25;16.60;42.80
939;DHT22;456;53.584;9.968;2023-06-14T05:14:50;16.60;42.90
939;DHT22;456;53.584;9.968;2023-06-14T05:17:16;16.60;42.90
939;DHT22;456;53.584;9.968;2023-06-14T05:19:42;16.60;42.90
939;DHT22;456;53.584;9.968;2023-06-14T05:22:08;16.60;42.90
939;DHT22;456;53.584;9.968;2023-06-14T05:24:34;16.60;42.90
939;DHT22;456;53.584;9.968;2023-06-14T05:27:00;16.60;42.90
939;DHT22;456;53.584;9.968;2023-06-14T05:29:26;16.60;43.00
939;DHT22;456;53.584;9.968;2023-06-14T05:31:52;16.60;43.00
939;DHT22;456;53.584;9.968;2023-06-14T05:34:18;16.60;43.00
939;DHT22;456;53.584;9.968;2023-06-14T05:36:44;16.60;43.00
939;DHT22;456;53.584;9.968;2023-06-14T05:39:10;16.60;43.00
939;DHT22;456;53.584;9.968;2023-06-14T05:41:35;16.60;43.10
939;DHT22;456;53.584;9.968;2023-06-14T05:44:01;16.60;43.30
939;DHT22;456;53.584;9.968;2023-06-14T05:46:27;16.60;43.00
939;DHT22;456;53.584;9.968;2023-06-14T05:48:54;16.60;43.00
939;DHT22;456;53.584;9.968;2023-06-14T05:51:20;16.60;43.10
939;DHT22;456;53.584;9.968;2023-06-14T05:53:46;16.60;43.00
939;DHT22;456;53.584;9.968;2023-06-14T05:56:12;16.60;43.00
939;DHT22;456;53.584;9.968;2023-06-14T05:58:38;16.60;43.10
939;DHT22;456;53.584;9.968;2023-06-14T06:01:04;16.60;43.10
939;DHT22;456;53.584;9.968;2023-06-14T06:03:30;16.60;43.10
939;DHT22;456;53.584;9.968;2023-06-14T06:05:55;16.60;43.10
939;DHT22;456;53.584;9.968;2023-06-14T06:08:21;16.60;43.80
939;DHT22;456;53.584;9.968;2023-06-14T06:10:47;16.60;43.20
939;DHT22;456;53.584;9.968;2023-06-14T06:13:12;16.60;43.70
939;DHT22;456;53.584;9.968;2023-06-14T06:15:38;16.60;43.10
939;DHT22;456;53.584;9.968;2023-06-14T06:18:03;16.60;43.10
939;DHT22;456;53.584;9.968;2023-06-14T06:20:29;16.60;43.10
939;DHT22;456;53.584;9.968;2023-06-14T06:22:57;16.60;43.10
939;DHT22;456;53.584;9.968;2023-06-14T06:25:24;16.60;43.00
939;DHT22;456;53.584;9.968;2023-06-14T06:27:51;16.60;43.10
939;DHT22;456;53.584;9.968;2023-06-14T06:30:17;16.60;43.10
939;DHT22;456;53.584;9.968;2023-06-14T06:32:43;16.60;43.10
939;DHT22;456;53.584;9.968;2023-06-14T06:35:09;16.60;43.10
939;DHT22;456;53.584;9.968;2023-06-14T06:37:36;16.60;43.00
939;DHT22;456;53.584;9.968;2023-06-14T06:40:02;16.60;43.10
939;DHT22;456;53.584;9.968;2023-06-14T06:42:29;16.60;43.10
939;DHT22;456;53.584;9.968;2023-06-14T06:44:55;16.60;43.20
939;DHT22;456;53.584;9.968;2023-06-14T06:47:20;16.60;43.20
939;DHT22;456;53.584;9.968;2023-06-14T06:49:46;16.60;43.20
939;DHT22;456;53.584;9.968;2023-06-14T06:52:11;16.60;43.10
939;DHT22;456;53.584;9.968;2023-06-14T06:54:37;16.60;43.20
939;DHT22;456;53.584;9.968;2023-06-14T06:57:03;16.60;43.10
939;DHT22;456;53.584;9.968;2023-06-14T06:59:28;16.60;43.90
939;DHT22;456;53.584;9.968;2023-06-14T07:01:54;16.60;43.20
939;DHT22;456;53.584;9.968;2023-06-14T07:04:20;16.60;43.10
939;DHT22;456;53.584;9.968;2023-06-14T07:06:46;16.60;43.10
939;DHT22;456;53.584;9.968;2023-06-14T07:09:12;16.60;43.20
939;DHT22;456;53.584;9.968;2023-06-14T07:11:40;16.60;43.10
939;DHT22;456;53.584;9.968;2023-06-14T07:14:06;16.60;43.10
939;DHT22;456;53.584;9.968;2023-06-14T07:16:32;16.60;43.10
939;DHT22;456;53.584;9.968;2023-06-14T07:18:57;16.60;43.10
939;DHT22;456;53.584;9.968;2023-06-14T07:21:23;16.60;43.10
939;DHT22;456;53.584;9.968;2023-06-14T07:23:51;16.60;43.20
939;DHT22;456;53.584;9.968;2023-06-14T07:26:16;16.60;43.20
939;DHT22;456;53.584;9.968;2023-06-14T07:28:42;16.60;43.20
939;DHT22;456;53.584;9.968;2023-06-14T07:31:10;16.60;43.20
939;DHT22;456;53.584;9.968;2023-06-14T07:33:36;16.60;43.20
939;DHT22;456;53.584;9.968;2023-06-14T07:36:02;16.60;43.10
939;DHT22;456;53.584;9.968;2023-06-14T07:38:28;16.60;43.20
939;DHT22;456;53.584;9.968;2023-06-14T07:40:54;16.60;43.20
939;DHT22;456;53.584;9.968;2023-06-14T07:43:19;16.60;43.10
939;DHT22;456;53.584;9.968;2023-06-14T07:45:45;16.60;43.10
939;DHT22;456;53.584;9.968;2023-06-14T07:48:11;16.60;43.20
939;DHT22;456;53.584;9.968;2023-06-14T07:50:37;16.60;43.10
939;DHT22;456;53.584;9.968;2023-06-14T07:53:02;16.60;43.10
939;DHT22;456;53.584;9.968;2023-06-14T07:55:28;16.60;43.20
939;DHT22;456;53.584;9.968;2023-06-14T07:57:54;16.60;43.70
939;DHT22;456;53.584;9.968;2023-06-14T08:00:20;16.60;43.20
939;DHT22;456;53.584;9.968;2023-06-14T08:02:46;16.60;43.10
939;DHT22;456;53.584;9.968;2023-06-14T08:05:12;16.60;43.10
939;DHT22;456;53.584;9.968;2023-06-14T08:07:39;16.60;43.10
939;DHT22;456;53.584;9.968;2023-06-14T08:10:05;16.60;43.10
939;DHT22;456;53.584;9.968;2023-06-14T08:12:32;16.60;43.10
939;DHT22;456;53.584;9.968;2023-06-14T08:14:58;16.60;43.10
939;DHT22;456;53.584;9.968;2023-06-14T08:17:23;16.60;43.10
939;DHT22;456;53.584;9.968;2023-06-14T08:19:49;16.60;43.10
939;DHT22;456;53.584;9.968;2023-06-14T08:22:15;16.60;43.10
939;DHT22;456;53.584;9.968;2023-06-14T08:24:40;16.60;43.00
939;DHT22;456;53.584;9.968;2023-06-14T08:27:07;16.60;43.10
939;DHT22;456;53.584;9.968;2023-06-14T08:29:33;16.60;43.00
939;DHT22;456;53.584;9.968;2023-06-14T08:31:58;16.60;43.10
939;DHT22;456;53.584;9.968;2023-06-14T08:34:24;16.60;43.10
939;DHT22;456;53.584;9.968;2023-06-14T08:36:50;16.60;43.10
939;DHT22;456;53.584;9.968;2023-06-14T08:39:16;16.60;43.10
939;DHT22;456;53.584;9.968;2023-06-14T08:41:44;16.60;43.10
939;DHT22;456;53.584;9.968;2023-06-14T08:44:11;16.60;43.10
939;DHT22;456;53.584;9.968;2023-06-14T08:46:37;16.60;43.10
939;DHT22;456;53.584;9.968;2023-06-14T08:49:03;16.60;43.10
939;DHT22;456;53.584;9.968;2023-06-14T08:51:32;16.60;43.00
939;DHT22;456;53.584;9.968;2023-06-14T08:54:00;16.60;43.00
939;DHT22;456;53.584;9.968;2023-06-14T08:56:31;16.60;43.00
939;DHT22;456;53.584;9.968;2023-06-14T08:58:58;16.60;43.00
939;DHT22;456;53.584;9.968;2023-06-14T09:01:28;16.60;43.00
939;DHT22;456;53.584;9.968;2023-06-14T09:03:54;16.60;43.10
939;DHT22;456;53.584;9.968;2023-06-14T09:06:23;16.60;43.00
939;DHT22;456;53.584;9.968;2023-06-14T09:08:50;16.60;42.90
939;DHT22;456;53.584;9.968;2023-06-14T09:11:17;16.60;42.90
939;DHT22;456;53.584;9.968;2023-06-14T09:13:45;16.60;43.00
939;DHT22;456;53.584;9.968;2023-06-14T09:16:10;16.60;42.90
939;DHT22;456;53.584;9.968;2023-06-14T09:18:42;16.60;43.00
939;DHT22;456;53.584;9.968;2023-06-14T09:21:14;16.60;43.60
939;DHT22;456;53.584;9.968;2023-06-14T09:23:41;16.70;43.00
939;DHT22;456;53.584;9.968;2023-06-14T09:26:12;16.60;42.90
939;DHT22;456;53.584;9.968;2023-06-14T09:28:46;16.60;42.90
939;DHT22;456;53.584;9.968;2023-06-14T09:31:13;16.60;43.00
939;DHT22;456;53.584;9.968;2023-06-14T09:33:41;16.60;42.90
939;DHT22;456;53.584;9.968;2023-06-14T09:36:14;16.60;42.80
939;DHT22;456;53.584;9.968;2023-06-14T09:38:41;16.60;43.00
939;DHT22;456;53.584;9.968;2023-06-14T09:41:07;16.60;42.80
939;DHT22;456;53.584;9.968;2023-06-14T09:43:34;16.60;43.00
939;DHT22;456;53.584;9.968;2023-06-14T09:46:03;16.60;42.90
939;DHT22;456;53.584;9.968;2023-06-14T09:48:30;16.60;43.00
939;DHT22;456;53.584;9.968;2023-06-14T09:50:58;16.60;42.90
939;DHT22;456;53.584;9.968;2023-06-14T09:53:26;16.60;43.00
939;DHT22;456;53.584;9.968;2023-06-14T09:55:54;16.70;42.90
939;DHT22;456;53.584;9.968;2023-06-14T09:58:23;16.60;42.90
939;DHT22;456;53.584;9.968;2023-06-14T10:00:51;16.60;42.90
939;DHT22;456;53.584;9.968;2023-06-14T10:03:23;16.60;42.80
939;DHT22;456;53.584;9.968;2023-06-14T10:05:51;16.70;42.90
939;DHT22;456;53.584;9.968;2023-06-14T10:08:19;16.60;42.80
939;DHT22;456;53.584;9.968;2023-06-14T10:10:51;16.60;42.80
939;DHT22;456;53.584;9.968;2023-06-14T10:13:16;16.60;42.80
939;DHT22;456;53.584;9.968;2023-06-14T10:21:43;16.60;42.80
939;DHT22;456;53.584;9.968;2023-06-14T10:24:13;16.60;42.80
939;DHT22;456;53.584;9.968;2023-06-14T10:26:52;16.60;42.90
939;DHT22;456;53.584;9.968;2023-06-14T10:29:18;16.60;42.90
939;DHT22;456;53.584;9.968;2023-06-14T10:31:45;16.60;42.80
939;DHT22;456;53.584;9.968;2023-06-14T10:34:12;16.60;42.80
939;DHT22;456;53.584;9.968;2023-06-14T10:36:41;16.60;42.90
939;DHT22;456;53.584;9.968;2023-06-14T10:39:10;16.60;42.90
939;DHT22;456;53.584;9.968;2023-06-14T10:41:37;16.60;42.90
939;DHT22;456;53.584;9.968;2023-06-14T10:46:48;16.60;42.80
939;DHT22;456;53.584;9.968;2023-06-14T10:49:19;16.70;42.90
939;DHT22;456;53.584;9.968;2023-06-14T10:51:55;16.60;42.90
939;DHT22;456;53.584;9.968;2023-06-14T10:54:22;16.70;43.00
939;DHT22;456;53.584;9.968;2023-06-14T10:56:51;16.60;42.90
939;DHT22;456;53.584;9.968;2023-06-14T10:59:18;16.60;42.90
939;DHT22;456;53.584;9.968;2023-06-14T11:04:50;16.60;43.00
939;DHT22;456;53.584;9.968;2023-06-14T11:12:54;16.60;43.00
939;DHT22;456;53.584;9.968;2023-06-14T11:15:20;16.70;43.00
939;DHT22;456;53.584;9.968;2023-06-14T11:17:51;16.70;42.90
939;DHT22;456;53.584;9.968;2023-06-14T11:20:19;16.70;43.00
939;DHT22;456;53.584;9.968;2023-06-14T11:22:45;16.60;42.90
939;DHT22;456;53.584;9.968;2023-06-14T11:25:11;16.60;42.90
939;DHT22;456;53.584;9.968;2023-06-14T11:27:37;16.60;42.90
939;DHT22;456;53.584;9.968;2023-06-14T11:30:07;16.70;43.00
939;DHT22;456;53.584;9.968;2023-06-14T11:32:33;16.70;43.00
939;DHT22;456;53.584;9.968;2023-06-14T11:34:58;16.70;42.90
939;DHT22;456;53.584;9.968;2023-06-14T11:37:26;16.60;43.50
939;DHT22;456;53.584;9.968;2023-06-14T11:39:56;16.60;42.80
939;DHT22;456;53.584;9.968;2023-06-14T11:42:23;16.60;42.90
939;DHT22;456;53.584;9.968;2023-06-14T11:44:49;16.60;42.80
939;DHT22;456;53.584;9.968;2023-06-14T11:47:15;16.60;43.00
939;DHT22;456;53.584;9.968;2023-06-14T11:49:41;16.70;43.00
939;DHT22;456;53.584;9.968;2023-06-14T11:52:07;16.60;42.80
939;DHT22;456;53.584;9.968;2023-06-14T11:54:33;16.70;43.00
939;DHT22;456;53.584;9.968;2023-06-14T11:56:59;16.70;43.00
939;DHT22;456;53.584;9.968;2023-06-14T11:59:25;16.60;42.80
939;DHT22;456;53.584;9.968;2023-06-14T12:01:53;16.60;42.80
939;DHT22;456;53.584;9.968;2023-06-14T12:04:26;16.60;42.90
939;DHT22;456;53.584;9.968;2023-06-14T12:06:52;16.70;43.00
939;DHT22;456;53.584;9.968;2023-06-14T12:09:18;16.60;42.80
939;DHT22;456;53.584;9.968;2023-06-14T12:11:45;16.70;42.90
939;DHT22;456;53.584;9.968;2023-06-14T12:14:11;16.60;42.80
939;DHT22;456;53.584;9.968;2023-06-14T12:16:40;16.60;42.80
939;DHT22;456;53.584;9.968;2023-06-14T12:19:16;16.60;42.80
939;DHT22;456;53.584;9.968;2023-06-14T12:21:45;16.70;43.00
939;DHT22;456;53.584;9.968;2023-06-14T12:24:13;16.70;42.90
939;DHT22;456;53.584;9.968;2023-06-14T12:26:40;16.70;42.90
939;DHT22;456;53.584;9.968;2023-06-14T12:29:06;16.70;42.90
939;DHT22;456;53.584;9.968;2023-06-14T12:31:33;16.60;43.00
939;DHT22;456;53.584;9.968;2023-06-14T12:33:59;16.70;42.90
939;DHT22;456;53.584;9.968;2023-06-14T12:36:24;16.70;43.00
939;DHT22;456;53.584;9.968;2023-06-14T12:38:51;16.70;42.90
939;DHT22;456;53.584;9.968;2023-06-14T12:41:19;16.70;43.00
939;DHT22;456;53.584;9.968;2023-06-14T12:43:46;16.70;42.90
939;DHT22;456;53.584;9.968;2023-06-14T12:46:12;16.70;42.90
939;DHT22;456;53.584;9.968;2023-06-14T12:48:38;16.70;42.90
939;DHT22;456;53.584;9.968;2023-06-14T12:51:03;16.70;43.00
939;DHT22;456;53.584;9.968;2023-06-14T12:53:29;16.70;43.00
939;DHT22;456;53.584;9.968;2023-06-14T12:55:55;16.70;43.00
939;DHT22;456;53.584;9.968;2023-06-14T12:58:20;16.70;43.00
939;DHT22;456;53.584;9.968;2023-06-14T13:00:47;16.60;42.80
939;DHT22;456;53.584;9.968;2023-06-14T13:03:12;16.70;42.90
939;DHT22;456;53.584;9.968;2023-06-14T13:05:38;16.70;42.90
939;DHT22;456;53.584;9.968;2023-06-14T13:08:07;16.70;42.90
939;DHT22;456;53.584;9.968;2023-06-14T13:10:33;16.70;43.00
939;DHT22;456;53.584;9.968;2023-06-14T13:12:59;16.70;43.00
939;DHT22;456;53.584;9.968;2023-06-14T13:15:25;16.70;43.00
939;DHT22;456;53.584;9.968;2023-06-14T13:17:52;16.70;43.00
939;DHT22;456;53.584;9.968;2023-06-14T13:20:18;16.60;42.90
939;DHT22;456;53.584;9.968;2023-06-14T13:22:44;16.70;42.90
939;DHT22;456;53.584;9.968;2023-06-14T13:25:10;16.70;43.00
939;DHT22;456;53.584;9.968;2023-06-14T13:27:35;16.70;42.90
939;DHT22;456;53.584;9.968;2023-06-14T13:30:02;16.70;43.00
939;DHT22;456;53.584;9.968;2023-06-14T13:32:27;16.70;43.00
939;DHT22;456;53.584;9.968;2023-06-14T13:34:53;16.70;43.00
939;DHT22;456;53.584;9.968;2023-06-14T13:37:19;16.70;42.90
939;DHT22;456;53.584;9.968;2023-06-14T13:39:44;16.70;43.00
939;DHT22;456;53.584;9.968;2023-06-14T13:42:10;16.70;42.90
939;DHT22;456;53.584;9.968;2023-06-14T13:44:36;16.70;43.00
939;DHT22;456;53.584;9.968;2023-06-14T13:47:01;16.70;43.00
939;DHT22;456;53.584;9.968;2023-06-14T13:49:27;16.70;42.90
939;DHT22;456;53.584;9.968;2023-06-14T13:51:53;16.70;43.00
939;DHT22;456;53.584;9.968;2023-06-14T13:54:21;16.70;42.90
939;DHT22;456;53.584;9.968;2023-06-14T13:56:47;16.70;43.00
939;DHT22;456;53.584;9.968;2023-06-14T13:59:12;16.70;42.90
939;DHT22;456;53.584;9.968;2023-06-14T14:01:39;16.70;43.00
939;DHT22;456;53.584;9.968;2023-06-14T14:04:05;16.70;42.90
939;DHT22;456;53.584;9.968;2023-06-14T14:06:31;16.70;42.80
939;DHT22;456;53.584;9.968;2023-06-14T14:08:57;16.70;42.90
939;DHT22;456;53.584;9.968;2023-06-14T14:11:22;16.70;42.80
939;DHT22;456;53.584;9.968;2023-06-14T14:13:48;16.70;43.00
939;DHT22;456;53.584;9.968;2023-06-14T14:16:15;16.70;42.90
939;DHT22;456;53.584;9.968;2023-06-14T14:18:40;16.70;42.90
939;DHT22;456;53.584;9.968;2023-06-14T14:21:06;16.70;42.90
939;DHT22;456;53.584;9.968;2023-06-14T14:23:32;16.70;42.90
939;DHT22;456;53.584;9.968;2023-06-14T14:25:58;16.70;42.90
939;DHT22;456;53.584;9.968;2023-06-14T14:28:26;16.70;42.90
939;DHT22;456;53.584;9.968;2023-06-14T14:30:51;16.70;42.90
939;DHT22;456;53.584;9.968;2023-06-14T14:33:19;16.70;42.90
939;DHT22;456;53.584;9.968;2023-06-14T14:35:45;16.70;42.90
939;DHT22;456;53.584;9.968;2023-06-14T14:38:14;16.70;42.90
939;DHT22;456;53.584;9.968;2023-06-14T14:40:41;16.70;43.00
939;DHT22;456;53.584;9.968;2023-06-14T14:43:07;16.70;42.90
939;DHT22;456;53.584;9.968;2023-06-14T14:45:32;16.70;43.00
939;DHT22;456;53.584;9.968;2023-06-14T14:47:59;16.70;43.00
939;DHT22;456;53.584;9.968;2023-06-14T14:50:25;16.70;43.00
939;DHT22;456;53.584;9.968;2023-06-14T14:52:51;16.70;42.90
939;DHT22;456;53.584;9.968;2023-06-14T14:55:17;16.70;42.90
939;DHT22;456;53.584;9.968;2023-06-14T14:57:43;16.70;43.00
939;DHT22;456;53.584;9.968;2023-06-14T15:00:09;16.70;43.00
939;DHT22;456;53.584;9.968;2023-06-14T15:02:35;16.70;42.90
939;DHT22;456;53.584;9.968;2023-06-14T15:05:00;16.70;42.90
939;DHT22;456;53.584;9.968;2023-06-14T15:07:30;16.70;42.90
939;DHT22;456;53.584;9.968;2023-06-14T15:09:59;16.70;42.90
939;DHT22;456;53.584;9.968;2023-06-14T15:12:25;16.70;43.00
939;DHT22;456;53.584;9.968;2023-06-14T15:14:51;16.70;42.80
939;DHT22;456;53.584;9.968;2023-06-14T15:17:18;16.70;42.80
939;DHT22;456;53.584;9.968;2023-06-14T15:19:45;16.70;42.80
939;DHT22;456;53.584;9.968;2023-06-14T15:22:11;16.70;43.00
939;DHT22;456;53.584;9.968;2023-06-14T15:24:36;16.70;42.90
939;DHT22;456;53.584;9.968;2023-06-14T15:27:02;16.70;42.80
939;DHT22;456;53.584;9.968;2023-06-14T15:29:28;16.70;42.80
939;DHT22;456;53.584;9.968;2023-06-14T15:31:54;16.70;42.90
939;DHT22;456;53.584;9.968;2023-06-14T15:34:20;16.70;42.90
939;DHT22;456;53.584;9.968;2023-06-14T15:36:46;16.70;43.60
939;DHT22;456;53.584;9.968;2023-06-14T15:39:12;16.70;42.90
939;DHT22;456;53.584;9.968;2023-06-14T15:41:37;16.70;43.20
939;DHT22;456;53.584;9.968;2023-06-14T15:44:03;16.70;42.90
939;DHT22;456;53.584;9.968;2023-06-14T15:46:29;16.70;43.00
939;DHT22;456;53.584;9.968;2023-06-14T15:48:55;16.70;42.90
939;DHT22;456;53.584;9.968;2023-06-14T15:51:20;16.70;42.90
939;DHT22;456;53.584;9.968;2023-06-14T15:53:46;16.70;43.00
939;DHT22;456;53.584;9.968;2023-06-14T15:56:11;16.70;42.90
939;DHT22;456;53.584;9.968;2023-06-14T15:58:37;16.70;42.90
939;DHT22;456;53.584;9.968;2023-06-14T16:01:02;16.70;42.90
939;DHT22;456;53.584;9.968;2023-06-14T16:03:28;16.70;42.90
939;DHT22;456;53.584;9.968;2023-06-14T16:05:53;16.70;42.90
939;DHT22;456;53.584;9.968;2023-06-14T16:08:19;16.70;42.90
939;DHT22;456;53.584;9.968;2023-06-14T16:10:45;16.70;43.00
939;DHT22;456;53.584;9.968;2023-06-14T16:13:11;16.70;42.90
939;DHT22;456;53.584;9.968;2023-06-14T16:15:36;16.70;42.90
939;DHT22;456;53.584;9.968;2023-06-14T16:18:02;16.70;42.90
939;DHT22;456;53.584;9.968;2023-06-14T16:20:27;16.70;43.70
939;DHT22;456;53.584;9.968;2023-06-14T16:22:53;16.70;42.80
939;DHT22;456;53.584;9.968;2023-06-14T16:25:18;16.70;43.00
939;DHT22;456;53.584;9.968;2023-06-14T16:27:44;16.70;43.00
939;DHT22;456;53.584;9.968;2023-06-14T16:30:10;16.70;42.90
939;DHT22;456;53.584;9.968;2023-06-14T16:32:36;16.70;42.90
939;DHT22;456;53.584;9.968;2023-06-14T16:35:01;16.70;42.90
939;DHT22;456;53.584;9.968;2023-06-14T16:37:27;16.70;42.90
939;DHT22;456;53.584;9.968;2023-06-14T16:39:52;16.70;42.90
939;DHT22;456;53.584;9.968;2023-06-14T16:42:20;16.70;43.00
939;DHT22;456;53.584;9.968;2023-06-14T16:44:46;16.70;42.90
939;DHT22;456;53.584;9.968;2023-06-14T16:47:11;16.70;42.80
939;DHT22;456;53.584;9.968;2023-06-14T16:49:37;16.70;42.90
939;DHT22;456;53.584;9.968;2023-06-14T16:52:03;16.70;43.00